createdAt,value
2022-12-20T00:04:05.804Z,29.77
2022-12-20T00:09:05.386Z,29.98
2022-12-20T00:14:05.041Z,28.48
2022-12-20T00:19:04.742Z,29.27
2022-12-20T00:24:03.217Z,26.98
2022-12-20T00:29:01.766Z,26.27
2022-12-20T00:34:02.283Z,30.58
2022-12-20T00:39:01.415Z,33.72
2022-12-20T00:43:59.631Z,26.60
2022-12-20T00:48:58.019Z,32.30
2022-12-20T00:53:57.985Z,28.58
2022-12-20T00:58:59.086Z,26.92
2022-12-20T01:03:57.318Z,28.63
2022-12-20T01:08:56.086Z,28.50
2022-12-20T01:13:57.125Z,28.48
2022-12-20T01:18:55.542Z,33.00
2022-12-20T01:23:53.981Z,30.40
2022-12-20T01:28:53.810Z,26.70
2022-12-20T01:33:53.572Z,27.13
2022-12-20T01:38:52.058Z,26.33
2022-12-20T01:43:51.607Z,31.85
2022-12-20T01:48:51.135Z,28.50
2022-12-20T01:53:52.943Z,29.05
2022-12-20T01:58:52.760Z,27.35
2022-12-20T02:03:52.493Z,26.20
2022-12-20T02:08:52.630Z,30.20
2022-12-20T02:13:57.595Z,26.40
2022-12-20T02:19:02.256Z,28.33
2022-12-20T02:24:21.045Z,33.42
2022-12-20T02:29:25.942Z,33.60
2022-12-20T02:34:29.405Z,28.42
2022-12-20T02:39:29.347Z,28.33
2022-12-20T02:44:45.969Z,28.35
2022-12-20T02:49:48.917Z,31.98
2022-12-20T02:54:47.173Z,27.88
2022-12-20T02:59:50.222Z,29.25
2022-12-20T03:04:49.965Z,32.00
2022-12-20T03:09:48.230Z,30.05
2022-12-20T03:14:47.118Z,31.30
2022-12-20T03:19:46.613Z,31.73
2022-12-20T03:24:46.185Z,31.08
2022-12-20T03:29:46.064Z,38.60
2022-12-20T03:34:44.744Z,37.17
2022-12-20T03:39:43.929Z,38.03
2022-12-20T03:44:46.110Z,29.17
2022-12-20T03:49:44.852Z,28.17
2022-12-20T03:54:43.178Z,28.02
2022-12-20T03:59:46.830Z,27.80
2022-12-20T04:04:47.204Z,34.45
2022-12-20T04:09:46.376Z,35.00
2022-12-20T04:14:47.949Z,26.67
2022-12-20T04:19:46.456Z,37.83
2022-12-20T04:24:45.311Z,36.47
2022-12-20T04:30:05.413Z,41.10
2022-12-20T04:35:06.986Z,43.25
2022-12-20T04:40:11.233Z,32.92
2022-12-20T04:45:19.292Z,31.30
2022-12-20T04:50:19.232Z,43.40
2022-12-20T04:55:18.319Z,48.53
2022-12-20T05:00:17.353Z,29.35
2022-12-20T05:05:22.068Z,89.32
2022-12-20T05:10:24.090Z,35.15
2022-12-20T05:15:24.109Z,34.75
2022-12-20T05:20:24.941Z,27.45
2022-12-20T05:25:43.595Z,27.40
2022-12-20T05:30:41.967Z,34.72
2022-12-20T05:35:42.264Z,26.95
2022-12-20T05:40:44.433Z,27.90
2022-12-20T05:45:46.382Z,45.72
2022-12-20T05:50:48.035Z,36.47
2022-12-20T05:56:12.414Z,40.22
2022-12-20T06:01:11.877Z,35.05
2022-12-20T06:06:15.052Z,30.90
2022-12-20T06:16:25.955Z,39.97
2022-12-20T06:21:29.180Z,33.60
2022-12-20T06:26:36.381Z,38.85
2022-12-20T06:31:37.248Z,40.83
2022-12-20T06:36:38.329Z,42.47
2022-12-20T06:41:40.921Z,44.20
2022-12-20T06:46:40.634Z,36.42
2022-12-20T06:51:42.433Z,44.58
2022-12-20T06:56:42.359Z,45.55
2022-12-20T07:01:43.556Z,41.97
2022-12-20T07:06:43.279Z,37.70
2022-12-20T07:11:44.440Z,43.80
2022-12-20T07:16:43.690Z,33.75
2022-12-20T07:21:43.368Z,36.40
2022-12-20T07:26:43.389Z,38.60
2022-12-20T07:31:44.268Z,38.17
2022-12-20T07:36:46.469Z,44.80
2022-12-20T07:41:45.116Z,61.28
2022-12-20T07:46:48.881Z,43.65
2022-12-20T07:51:49.818Z,38.30
2022-12-20T07:56:57.036Z,34.80
2022-12-20T08:01:59.442Z,36.38
2022-12-20T08:07:03.939Z,36.60
2022-12-20T08:12:02.399Z,37.13
2022-12-20T08:17:00.731Z,33.90
2022-12-20T08:22:00.866Z,39.75
2022-12-20T08:27:00.466Z,41.25
2022-12-20T08:31:58.732Z,41.50
2022-12-20T08:36:57.110Z,44.83
2022-12-20T08:41:56.594Z,54.80
2022-12-20T08:46:58.392Z,49.45
2022-12-20T08:51:59.420Z,83.25
2022-12-20T08:56:57.635Z,49.22
2022-12-20T09:01:57.456Z,49.45
2022-12-20T09:06:57.254Z,53.08
2022-12-20T09:11:55.763Z,59.65
2022-12-20T09:16:56.991Z,42.45
2022-12-20T09:21:56.664Z,54.75
2022-12-20T09:26:54.889Z,37.92
2022-12-20T09:31:53.195Z,44.38
2022-12-20T09:42:26.188Z,34.15
2022-12-20T09:47:27.972Z,42.10
2022-12-20T09:52:37.986Z,38.08
2022-12-20T09:57:47.878Z,38.13
2022-12-20T10:03:09.370Z,34.33
2022-12-20T10:08:12.318Z,36.55
2022-12-20T10:13:17.080Z,38.33
2022-12-20T10:18:24.538Z,33.88
2022-12-20T10:23:32.805Z,41.60
2022-12-20T10:28:36.991Z,46.10
2022-12-20T10:33:35.370Z,40.63
2022-12-20T10:38:44.634Z,41.63
2022-12-20T10:43:48.068Z,43.25
2022-12-20T10:48:46.973Z,42.30
2022-12-20T10:53:54.750Z,42.10
2022-12-20T10:59:00.487Z,35.38
2022-12-20T11:04:05.473Z,38.42
2022-12-20T11:09:24.773Z,41.72
2022-12-20T11:14:24.463Z,45.95
2022-12-20T11:19:31.907Z,45.42
2022-12-20T11:24:34.384Z,57.38
2022-12-20T11:29:50.639Z,39.78
2022-12-20T11:34:55.668Z,42.95
2022-12-20T11:40:05.530Z,44.22
2022-12-20T11:45:13.829Z,47.22
2022-12-20T11:50:21.638Z,156.15
2022-12-20T11:55:22.765Z,38.63
2022-12-20T12:00:24.398Z,45.50
2022-12-20T12:05:24.973Z,63.40
2022-12-20T12:10:27.814Z,55.78
2022-12-20T12:15:31.948Z,98.03
2022-12-20T12:20:34.485Z,53.95
2022-12-20T12:25:32.790Z,46.05
2022-12-20T12:30:37.713Z,56.70
2022-12-20T12:35:46.213Z,50.70
2022-12-20T12:40:57.333Z,47.60
2022-12-20T12:45:59.487Z,53.63
2022-12-20T12:50:58.824Z,59.25
2022-12-20T12:56:12.720Z,60.17
2022-12-20T13:01:13.319Z,119.40
2022-12-20T13:06:30.081Z,65.93
2022-12-20T13:11:30.680Z,65.72
2022-12-20T13:17:09.447Z,73.05
2022-12-20T13:21:56.868Z,68.13
2022-12-20T13:31:54.919Z,60.50
2022-12-20T13:36:59.498Z,65.80
2022-12-20T13:42:08.430Z,78.93
2022-12-20T13:47:24.805Z,68.90
2022-12-20T13:52:25.331Z,85.28
2022-12-20T13:57:27.284Z,59.58
2022-12-20T14:02:29.229Z,79.32
2022-12-20T14:07:28.660Z,72.00
2022-12-20T14:12:32.918Z,67.72
2022-12-20T14:17:39.839Z,137.93
2022-12-20T14:22:44.142Z,62.05
2022-12-20T14:27:42.913Z,73.32
2022-12-20T14:32:49.964Z,89.25
2022-12-20T14:37:53.967Z,83.00
2022-12-20T14:42:52.410Z,118.35
2022-12-20T14:47:55.381Z,97.20
2022-12-20T14:52:53.704Z,148.57
2022-12-20T14:57:52.697Z,91.18
2022-12-20T15:02:53.707Z,83.70
2022-12-20T15:07:52.003Z,82.82
2022-12-20T15:12:50.660Z,84.15
2022-12-20T15:17:48.908Z,106.80
2022-12-20T15:22:48.601Z,91.78
2022-12-20T15:27:46.813Z,98.88
2022-12-20T15:32:55.204Z,113.97
2022-12-20T15:37:55.386Z,69.88
2022-12-20T15:42:53.548Z,138.98
2022-12-20T15:47:51.867Z,69.75
2022-12-20T15:52:50.228Z,107.75
2022-12-20T15:57:49.927Z,85.43
2022-12-20T16:02:51.094Z,58.53
2022-12-20T16:07:49.554Z,59.40
2022-12-20T16:12:47.761Z,56.10
2022-12-20T16:17:47.414Z,66.22
2022-12-20T16:22:46.017Z,95.50
2022-12-20T16:27:44.181Z,81.93
2022-12-20T16:32:42.522Z,71.68
2022-12-20T16:37:42.179Z,80.22
2022-12-20T16:42:40.478Z,72.88
2022-12-20T16:47:39.662Z,74.13
2022-12-20T16:52:38.001Z,64.38
2022-12-20T16:57:37.883Z,76.05
2022-12-20T17:02:36.283Z,75.05
2022-12-20T17:07:41.124Z,81.63
2022-12-20T17:12:41.276Z,82.55
2022-12-20T17:17:39.667Z,95.85
2022-12-20T17:27:55.664Z,100.22
2022-12-20T17:32:54.521Z,99.35
2022-12-20T17:37:55.823Z,74.35
2022-12-20T17:42:56.009Z,67.03
2022-12-20T17:47:54.712Z,60.22
2022-12-20T17:52:54.614Z,60.47
2022-12-20T17:57:53.872Z,64.57
2022-12-20T18:02:53.935Z,73.95
2022-12-20T18:07:53.442Z,72.97
2022-12-20T18:12:51.817Z,58.47
2022-12-20T18:17:50.032Z,67.60
2022-12-20T18:22:49.730Z,71.53
2022-12-20T18:27:48.114Z,67.68
2022-12-20T18:32:46.413Z,65.30
2022-12-20T18:37:44.561Z,72.53
2022-12-20T18:42:45.058Z,75.57
2022-12-20T18:47:43.429Z,80.30
2022-12-20T18:52:43.250Z,129.18
2022-12-20T18:57:47.209Z,73.93
2022-12-20T19:02:45.578Z,74.78
2022-12-20T19:07:43.905Z,69.03
2022-12-20T19:12:42.177Z,66.85
2022-12-20T19:17:42.125Z,71.38
2022-12-20T19:22:41.993Z,62.13
2022-12-20T19:27:40.637Z,63.28
2022-12-20T19:32:39.093Z,57.90
2022-12-20T19:37:39.487Z,57.03
2022-12-20T19:42:38.100Z,57.28
2022-12-20T19:47:36.359Z,68.28
2022-12-20T19:52:34.531Z,63.40
2022-12-20T19:57:34.913Z,67.60
2022-12-20T20:02:33.303Z,87.32
2022-12-20T20:07:31.542Z,74.13
2022-12-20T20:12:29.735Z,63.85
2022-12-20T20:17:29.474Z,68.15
2022-12-20T20:22:27.705Z,65.03
2022-12-20T20:27:25.958Z,97.60
2022-12-20T20:32:24.111Z,125.97
2022-12-20T20:37:23.784Z,146.85
2022-12-20T20:42:23.639Z,94.65
2022-12-20T20:47:22.138Z,266.27
2022-12-20T20:52:20.863Z,170.82
2022-12-20T20:57:20.422Z,160.48
2022-12-20T21:02:21.048Z,128.82
2022-12-20T21:07:19.581Z,133.75
2022-12-20T21:12:18.000Z,180.35
2022-12-20T21:17:17.997Z,189.52
2022-12-20T21:22:16.150Z,102.90
2022-12-20T21:27:14.329Z,253.43
2022-12-20T21:32:12.498Z,95.70
2022-12-20T21:37:12.071Z,95.28
2022-12-20T21:42:10.226Z,161.32
2022-12-20T21:47:08.663Z,67.20
2022-12-20T21:52:06.939Z,146.38
2022-12-20T21:57:06.532Z,116.07
2022-12-20T22:02:05.028Z,90.18
2022-12-20T22:07:03.391Z,79.97
2022-12-20T22:12:01.560Z,69.95
2022-12-20T22:17:01.122Z,69.63
2022-12-20T22:21:59.277Z,73.68
2022-12-20T22:26:57.470Z,64.18
2022-12-20T22:31:55.669Z,73.60
2022-12-20T22:36:55.277Z,55.25
2022-12-20T22:41:53.424Z,58.78
2022-12-20T22:46:51.605Z,61.55
2022-12-20T22:52:05.868Z,78.47
2022-12-20T22:57:06.151Z,59.37
2022-12-20T23:02:05.436Z,56.70
2022-12-20T23:07:03.814Z,41.85
2022-12-20T23:12:19.425Z,42.15
2022-12-20T23:17:18.967Z,30.65
2022-12-20T23:22:34.650Z,38.97
2022-12-20T23:32:32.155Z,46.10
2022-12-20T23:37:30.347Z,47.42
2022-12-20T23:42:29.237Z,44.65
2022-12-20T23:47:27.376Z,42.60
2022-12-20T23:52:26.949Z,48.38
2022-12-20T23:57:25.124Z,43.28
